Tropical Cyclones
[Index]
Main Index Home Page Stock Weather Photos Extreme Storms Discussion Storm News and Storm Chasing Reports Tropical Cyclones / Hurricanes / Typhoons Weather Data and Links Wild Fires / Bushfires Weather Observation Techniques Weather Picture Catalogue Tornado Pictures and Reports Stock Video Footage and DVDs for sale
Season 1981-1982 Tropical Cyclone ABIGAIL Track Map
Season 1981-1982 Summaries: [BoM-AU] [JTWC-AU] [JTWC-SIO] [JTWC-SPAC] [JTWC-SH]
<<- Previous TC | JTWC 1981-1982 Season | Next TC ->>

click for intensity scale information  Lat/long Grid: Show Hide

 Date Labels: Show Hide

Joint Typhoon Warning Centre Cyclone Data

Name: ABIGAIL

25 Jan 1982 18:00 UTC to 06 Feb 1982 06:00 UTC

    date/time    lat    long     hPa   cat  kts
1982-01-25 18   18.0   154.1                  25          
1982-01-26 00   19.1   154.8                  25          
1982-01-26 06   19.7   155.7                  25          
1982-01-26 12   19.9   156.7                  30          
1982-01-26 18   20.1   157.8                  35          
1982-01-27 00   20.4   158.6            1     40          
1982-01-27 06   20.7   159.1            1     40          
1982-01-27 12   21.0   159.5            1     40          
1982-01-27 18   21.2   159.6            1     40          
1982-01-28 00   21.5   159.5            1     40          
1982-01-28 06   21.8   159.4            1     40          
1982-01-28 12   22.0   159.2            1     40          
1982-01-28 18   22.0   158.9            1     40          
1982-01-29 00   21.9   158.1            1     40          
1982-01-29 06   21.7   157.3                  35          
1982-01-29 12   20.9   156.9                  35          
1982-01-29 18   20.1   156.7            1     40          
1982-01-30 00   19.9   156.7            1     40          
1982-01-30 06   19.7   156.8            1     40          
1982-01-30 12   19.2   156.7            1     40          
1982-01-30 18   18.6   156.7            1     40          
1982-01-31 00   18.1   156.8                  35          
1982-01-31 06   17.5   157.1                  35          
1982-01-31 12   17.2   157.6            1     40          
1982-01-31 18   17.2   158.3            1     45          
1982-02-01 00   17.1   159.0            1     45          
1982-02-01 06   17.2   159.7            1     50          
1982-02-01 12   17.5   160.5            1     50          
1982-02-01 18   18.0   161.2            2     55          
1982-02-02 00   18.6   161.6            2     55          
1982-02-02 06   19.2   161.8            1     50          
1982-02-02 12   19.8   162.0            2     55          
1982-02-02 18   20.5   162.2            2     60          
1982-02-03 00   21.4   162.3            2     65          
1982-02-03 06   22.3   162.3            2     65          
1982-02-03 12   23.1   162.5            2     65          
1982-02-03 18   23.8   162.8            2     60          
1982-02-04 00   24.6   163.2            1     50          
1982-02-04 06   25.4   163.8            1     45          
1982-02-04 12   25.8   164.6            1     45          
1982-02-04 18   25.8   165.5            1     40          
1982-02-05 00   25.8   166.5            1     40          
1982-02-05 06   25.6   167.5                  35          
1982-02-05 12   25.2   168.7                  35          
1982-02-05 18   24.9   170.0                  30          
1982-02-06 00   24.7   171.1                  30          
1982-02-06 06   24.7   172.2                  25          
Winds are 1-min average.

Tropical cyclone tracks developed by Michael Bath using data from the Joint Typhoon Warning Centre Best Tracks and Google Maps.


[Australian Severe Weather index] [Copyright Notice] [Email Contacts] [Search This Site] [Privacy Policy]
Document: tropical_cyclone_abigail.htm Updated: 18 September 2016